首页
METAR-TAF:

METAR-TAF

机场 :

卡迪夫機場

加的夫, 威尔士

纬度: 51-24N, 经度: 003-21W, 海拔: 67米

当前天气观测

该预报发布于27分钟前的09:50 UTC
风速5节,风向
温度 2°C
湿度 93%
气压 1028 hPa
能见度10公里或以上

METAR: EGFF 180950Z AUTO 01005KT 9999 NCD 02/01 Q1028

时间: 10:17 (10:17 UTC)

预报

该预报发布于5小时和20分钟前的04:57 UTC
预报有效从18日的 06点(UTC)到 19日的 06点(UTC)
风速4节,风向西转西北
能见度10公里或以上
少量云层高于4000英尺
几率 30%
从 18日的 06点(UTC)到 18日的 10点(UTC)
能見度: 4000
浅雾, 轻雾
几率 30% :
短暂存在
从 19日的 04点(UTC)到 19日的 06点(UTC)
能見度: 9000

TAF: EGFF 180457Z 1806/1906 30004KT 9999 FEW040 PROB30 1806/1810 4000 MIFG BR PROB30 TEMPO 1904/1906 9000

超过4000个机场的气象观测和天气预报(METAR&TAF报告)。

可查询的气象台以黄色和红色小点在地图上表示。

将鼠标移到小点上方,可查看气象台名称。

然后点击查看天气观测和预报。

如需切换地图:点击带黑十字的绿色按钮放大地图;点击带横线的绿色按钮缩小地图;或者点击绿色箭头查看邻近地区的地图。


METAR-TAF: